sensor_id;sensor_type;location;lat;lon;timestamp;pressure;altitude;pressure_sealevel;temperature;humidity
9439;BME280;5176;42.622;25.386;2023-03-05T00:01:34;96794.03;;;5.75;100.00
9439;BME280;5176;42.622;25.386;2023-03-05T00:04:04;96787.75;;;5.79;100.00
9439;BME280;5176;42.622;25.386;2023-03-05T00:06:33;96787.34;;;5.87;100.00
9439;BME280;5176;42.622;25.386;2023-03-05T00:09:03;96788.06;;;5.90;100.00
9439;BME280;5176;42.622;25.386;2023-03-05T00:11:33;96777.59;;;5.92;100.00
9439;BME280;5176;42.622;25.386;2023-03-05T00:14:04;96779.47;;;5.88;100.00
9439;BME280;5176;42.622;25.386;2023-03-05T00:16:34;96779.34;;;5.91;100.00
9439;BME280;5176;42.622;25.386;2023-03-05T00:19:03;96779.25;;;5.93;100.00
9439;BME280;5176;42.622;25.386;2023-03-05T00:21:34;96777.59;;;5.92;100.00
9439;BME280;5176;42.622;25.386;2023-03-05T00:24:06;96777.34;;;5.96;100.00
9439;BME280;5176;42.622;25.386;2023-03-05T00:26:38;96769.38;;;5.99;100.00
9439;BME280;5176;42.622;25.386;2023-03-05T00:29:08;96771.00;;;6.02;100.00
9439;BME280;5176;42.622;25.386;2023-03-05T00:31:37;96772.22;;;5.95;100.00
9439;BME280;5176;42.622;25.386;2023-03-05T00:34:08;96769.84;;;5.90;100.00
9439;BME280;5176;42.622;25.386;2023-03-05T00:36:39;96769.84;;;5.90;100.00
9439;BME280;5176;42.622;25.386;2023-03-05T00:39:09;96758.91;;;5.84;100.00
9439;BME280;5176;42.622;25.386;2023-03-05T00:41:40;96755.63;;;5.80;100.00
9439;BME280;5176;42.622;25.386;2023-03-05T00:44:10;96758.81;;;5.69;100.00
9439;BME280;5176;42.622;25.386;2023-03-05T00:46:40;96759.88;;;5.65;100.00
9439;BME280;5176;42.622;25.386;2023-03-05T00:49:09;96761.03;;;5.60;100.00
9439;BME280;5176;42.622;25.386;2023-03-05T00:51:39;96760.19;;;5.59;100.00
9439;BME280;5176;42.622;25.386;2023-03-05T00:54:08;96755.38;;;5.52;100.00
9439;BME280;5176;42.622;25.386;2023-03-05T00:56:39;96750.41;;;5.47;100.00
9439;BME280;5176;42.622;25.386;2023-03-05T00:59:08;96753.31;;;5.41;100.00
9439;BME280;5176;42.622;25.386;2023-03-05T01:01:38;96752.56;;;5.39;100.00
9439;BME280;5176;42.622;25.386;2023-03-05T01:04:08;96749.13;;;5.38;100.00
9439;BME280;5176;42.622;25.386;2023-03-05T01:06:37;96738.66;;;5.40;100.00
9439;BME280;5176;42.622;25.386;2023-03-05T01:09:09;96733.69;;;5.35;100.00
9439;BME280;5176;42.622;25.386;2023-03-05T01:11:41;96737.06;;;5.37;100.00
9439;BME280;5176;42.622;25.386;2023-03-05T01:14:10;96737.06;;;5.37;100.00
9439;BME280;5176;42.622;25.386;2023-03-05T01:16:39;96735.44;;;5.35;100.00
9439;BME280;5176;42.622;25.386;2023-03-05T01:19:08;96733.22;;;5.27;100.00
9439;BME280;5176;42.622;25.386;2023-03-05T01:21:37;96732.31;;;5.28;100.00
9439;BME280;5176;42.622;25.386;2023-03-05T01:24:06;96738.38;;;5.29;100.00
9439;BME280;5176;42.622;25.386;2023-03-05T01:26:35;96739.25;;;5.28;100.00
9439;BME280;5176;42.622;25.386;2023-03-05T01:29:05;96742.69;;;5.28;100.00
9439;BME280;5176;42.622;25.386;2023-03-05T01:31:34;96734.53;;;5.18;100.00
9439;BME280;5176;42.622;25.386;2023-03-05T01:34:03;96729.34;;;5.18;100.00
9439;BME280;5176;42.622;25.386;2023-03-05T01:36:33;96726.06;;;5.15;100.00
9439;BME280;5176;42.622;25.386;2023-03-05T01:39:02;96715.16;;;5.08;100.00
9439;BME280;5176;42.622;25.386;2023-03-05T01:41:31;96708.88;;;5.12;100.00
9439;BME280;5176;42.622;25.386;2023-03-05T01:44:01;96713.41;;;5.09;100.00
9439;BME280;5176;42.622;25.386;2023-03-05T01:46:33;96714.44;;;5.05;100.00
9439;BME280;5176;42.622;25.386;2023-03-05T01:49:20;96718.94;;;5.01;100.00
9439;BME280;5176;42.622;25.386;2023-03-05T01:51:55;96713.00;;;4.99;100.00
9439;BME280;5176;42.622;25.386;2023-03-05T01:54:30;96712.25;;;4.97;100.00
9439;BME280;5176;42.622;25.386;2023-03-05T01:57:05;96711.53;;;4.93;100.00
9439;BME280;5176;42.622;25.386;2023-03-05T01:59:36;96710.78;;;4.91;100.00
9439;BME280;5176;42.622;25.386;2023-03-05T02:02:08;96707.97;;;4.96;100.00
9439;BME280;5176;42.622;25.386;2023-03-05T02:04:42;96719.50;;;4.90;100.00
9439;BME280;5176;42.622;25.386;2023-03-05T02:07:13;96720.63;;;4.85;100.00
9439;BME280;5176;42.622;25.386;2023-03-05T02:09:43;96728.09;;;4.74;100.00
9439;BME280;5176;42.622;25.386;2023-03-05T02:12:12;96715.56;;;4.64;100.00
9439;BME280;5176;42.622;25.386;2023-03-05T02:14:44;96710.50;;;4.44;100.00
9439;BME280;5176;42.622;25.386;2023-03-05T02:17:16;96720.53;;;4.33;100.00
9439;BME280;5176;42.622;25.386;2023-03-05T02:19:48;96715.38;;;4.14;100.00
9439;BME280;5176;42.622;25.386;2023-03-05T02:22:22;96717.72;;;4.01;100.00
9439;BME280;5176;42.622;25.386;2023-03-05T02:24:51;96721.56;;;3.93;100.00
9439;BME280;5176;42.622;25.386;2023-03-05T02:27:22;96730.16;;;3.93;100.00
9439;BME280;5176;42.622;25.386;2023-03-05T02:29:53;96728.66;;;3.89;100.00
9439;BME280;5176;42.622;25.386;2023-03-05T02:32:22;96732.16;;;3.88;100.00
9439;BME280;5176;42.622;25.386;2023-03-05T02:34:51;96736.34;;;3.91;100.00
9439;BME280;5176;42.622;25.386;2023-03-05T02:37:22;96721.78;;;3.88;100.00
9439;BME280;5176;42.622;25.386;2023-03-05T02:39:51;96706.63;;;3.79;100.00
9439;BME280;5176;42.622;25.386;2023-03-05T02:42:20;96737.59;;;4.01;100.00
9439;BME280;5176;42.622;25.386;2023-03-05T02:44:49;96738.31;;;4.04;100.00
9439;BME280;5176;42.622;25.386;2023-03-05T02:47:18;96737.03;;;4.13;100.00
9439;BME280;5176;42.622;25.386;2023-03-05T02:49:46;96742.69;;;4.21;100.00
9439;BME280;5176;42.622;25.386;2023-03-05T02:52:15;96737.22;;;4.27;100.00
9439;BME280;5176;42.622;25.386;2023-03-05T02:54:45;96737.22;;;4.27;100.00
9439;BME280;5176;42.622;25.386;2023-03-05T02:57:14;96740.00;;;4.24;100.00
9439;BME280;5176;42.622;25.386;2023-03-05T02:59:43;96737.84;;;4.15;100.00
9439;BME280;5176;42.622;25.386;2023-03-05T03:02:13;96740.41;;;4.15;100.00
9439;BME280;5176;42.622;25.386;2023-03-05T03:04:43;96737.88;;;4.14;100.00
9439;BME280;5176;42.622;25.386;2023-03-05T03:07:13;96743.13;;;4.12;100.00
9439;BME280;5176;42.622;25.386;2023-03-05T03:09:42;96737.19;;;4.10;100.00
9439;BME280;5176;42.622;25.386;2023-03-05T03:12:13;96734.69;;;4.08;100.00
9439;BME280;5176;42.622;25.386;2023-03-05T03:14:43;96729.63;;;4.05;100.00
9439;BME280;5176;42.622;25.386;2023-03-05T03:17:13;96732.00;;;4.10;100.00
9439;BME280;5176;42.622;25.386;2023-03-05T03:19:43;96735.00;;;4.20;100.00
9439;BME280;5176;42.622;25.386;2023-03-05T03:22:14;96724.78;;;4.17;100.00
9439;BME280;5176;42.622;25.386;2023-03-05T03:24:43;96734.16;;;4.19;100.00
9439;BME280;5176;42.622;25.386;2023-03-05T03:27:14;96724.53;;;4.21;100.00
9439;BME280;5176;42.622;25.386;2023-03-05T03:29:43;96725.63;;;4.17;100.00
9439;BME280;5176;42.622;25.386;2023-03-05T03:32:12;96718.84;;;4.15;100.00
9439;BME280;5176;42.622;25.386;2023-03-05T03:34:41;96721.34;;;4.16;100.00
9439;BME280;5176;42.622;25.386;2023-03-05T03:37:10;96728.50;;;4.11;100.00
9439;BME280;5176;42.622;25.386;2023-03-05T03:39:40;96719.13;;;4.08;100.00
9439;BME280;5176;42.622;25.386;2023-03-05T03:42:08;96718.97;;;4.12;100.00
9439;BME280;5176;42.622;25.386;2023-03-05T03:44:39;96720.72;;;4.11;100.00
9439;BME280;5176;42.622;25.386;2023-03-05T03:47:08;96712.94;;;4.11;100.00
9439;BME280;5176;42.622;25.386;2023-03-05T03:49:38;96720.00;;;4.07;100.00
9439;BME280;5176;42.622;25.386;2023-03-05T03:52:07;96716.53;;;4.08;100.00
9439;BME280;5176;42.622;25.386;2023-03-05T03:54:35;96713.28;;;4.03;100.00
9439;BME280;5176;42.622;25.386;2023-03-05T03:57:04;96715.72;;;4.06;100.00
9439;BME280;5176;42.622;25.386;2023-03-05T03:59:33;96709.78;;;4.04;100.00
9439;BME280;5176;42.622;25.386;2023-03-05T04:02:04;96708.88;;;4.05;100.00
9439;BME280;5176;42.622;25.386;2023-03-05T04:04:33;96707.81;;;4.09;100.00
9439;BME280;5176;42.622;25.386;2023-03-05T04:07:02;96726.06;;;4.08;100.00
9439;BME280;5176;42.622;25.386;2023-03-05T04:09:31;96715.69;;;4.08;100.00
9439;BME280;5176;42.622;25.386;2023-03-05T04:11:59;96710.69;;;4.03;100.00
9439;BME280;5176;42.622;25.386;2023-03-05T04:14:28;96716.91;;;3.99;100.00
9439;BME280;5176;42.622;25.386;2023-03-05T04:16:57;96718.84;;;3.96;100.00
9439;BME280;5176;42.622;25.386;2023-03-05T04:19:27;96720.72;;;3.92;100.00
9439;BME280;5176;42.622;25.386;2023-03-05T04:21:56;96720.16;;;3.86;100.00
9439;BME280;5176;42.622;25.386;2023-03-05T04:24:25;96711.47;;;3.87;100.00
9439;BME280;5176;42.622;25.386;2023-03-05T04:26:54;96710.88;;;3.80;100.00
9439;BME280;5176;42.622;25.386;2023-03-05T04:29:24;96706.63;;;3.79;100.00
9439;BME280;5176;42.622;25.386;2023-03-05T04:31:52;96703.13;;;3.80;100.00
9439;BME280;5176;42.622;25.386;2023-03-05T04:34:21;96708.31;;;3.80;100.00
9439;BME280;5176;42.622;25.386;2023-03-05T04:36:52;96711.69;;;3.82;100.00
9439;BME280;5176;42.622;25.386;2023-03-05T04:39:21;96716.06;;;3.80;100.00
9439;BME280;5176;42.622;25.386;2023-03-05T04:41:49;96718.94;;;3.74;100.00
9439;BME280;5176;42.622;25.386;2023-03-05T04:44:20;96710.31;;;3.73;100.00
9439;BME280;5176;42.622;25.386;2023-03-05T04:46:52;96719.09;;;3.71;100.00
9439;BME280;5176;42.622;25.386;2023-03-05T04:49:21;96715.78;;;3.67;100.00
9439;BME280;5176;42.622;25.386;2023-03-05T04:51:49;96721.63;;;3.72;100.00
9439;BME280;5176;42.622;25.386;2023-03-05T04:54:21;96718.94;;;3.74;100.00
9439;BME280;5176;42.622;25.386;2023-03-05T04:56:50;96726.03;;;3.70;100.00
9439;BME280;5176;42.622;25.386;2023-03-05T04:59:18;96725.19;;;3.70;100.00
9439;BME280;5176;42.622;25.386;2023-03-05T05:01:47;96732.13;;;3.69;100.00
9439;BME280;5176;42.622;25.386;2023-03-05T05:04:16;96725.13;;;3.71;100.00
9439;BME280;5176;42.622;25.386;2023-03-05T05:06:44;96731.84;;;3.75;100.00
9439;BME280;5176;42.622;25.386;2023-03-05T05:09:13;96726.72;;;3.74;100.00
9439;BME280;5176;42.622;25.386;2023-03-05T05:11:43;96727.50;;;3.76;100.00
9439;BME280;5176;42.622;25.386;2023-03-05T05:14:12;96730.03;;;3.77;100.00
9439;BME280;5176;42.622;25.386;2023-03-05T05:16:41;96719.09;;;3.71;100.00
9439;BME280;5176;42.622;25.386;2023-03-05T05:19:09;96722.38;;;3.74;100.00
9439;BME280;5176;42.622;25.386;2023-03-05T05:21:38;96715.16;;;3.62;100.00
9439;BME280;5176;42.622;25.386;2023-03-05T05:24:07;96723.34;;;3.53;100.00
9439;BME280;5176;42.622;25.386;2023-03-05T05:26:36;96723.13;;;3.58;100.00
9439;BME280;5176;42.622;25.386;2023-03-05T05:29:06;96731.47;;;3.64;100.00
9439;BME280;5176;42.622;25.386;2023-03-05T05:31:35;96735.34;;;3.74;100.00
9439;BME280;5176;42.622;25.386;2023-03-05T05:34:03;96736.88;;;3.78;100.00
9439;BME280;5176;42.622;25.386;2023-03-05T05:36:32;96733.94;;;3.86;100.00
9439;BME280;5176;42.622;25.386;2023-03-05T05:39:02;96727.00;;;3.87;100.00
9439;BME280;5176;42.622;25.386;2023-03-05T05:41:30;96736.34;;;3.91;100.00
9439;BME280;5176;42.622;25.386;2023-03-05T05:43:59;96737.09;;;3.93;100.00
9439;BME280;5176;42.622;25.386;2023-03-05T05:46:29;96736.16;;;3.95;100.00
9439;BME280;5176;42.622;25.386;2023-03-05T05:48:58;96736.34;;;4.09;100.00
9439;BME280;5176;42.622;25.386;2023-03-05T05:51:28;96745.63;;;4.15;100.00
9439;BME280;5176;42.622;25.386;2023-03-05T05:53:56;96743.56;;;4.22;100.00
9439;BME280;5176;42.622;25.386;2023-03-05T05:56:25;96747.41;;;4.32;100.00
9439;BME280;5176;42.622;25.386;2023-03-05T05:58:54;96743.91;;;4.33;100.00
9439;BME280;5176;42.622;25.386;2023-03-05T06:01:25;96748.03;;;4.37;100.00
9439;BME280;5176;42.622;25.386;2023-03-05T06:03:56;96750.00;;;4.32;100.00
9439;BME280;5176;42.622;25.386;2023-03-05T06:06:25;96757.50;;;4.38;100.00
9439;BME280;5176;42.622;25.386;2023-03-05T06:08:54;96755.81;;;4.37;100.00
9439;BME280;5176;42.622;25.386;2023-03-05T06:11:23;96757.72;;;4.33;100.00
9439;BME280;5176;42.622;25.386;2023-03-05T06:13:52;96752.47;;;4.16;100.00
9439;BME280;5176;42.622;25.386;2023-03-05T06:16:22;96744.69;;;4.16;100.00
9439;BME280;5176;42.622;25.386;2023-03-05T06:18:51;96752.75;;;4.29;100.00
9439;BME280;5176;42.622;25.386;2023-03-05T06:21:23;96758.97;;;4.25;100.00
9439;BME280;5176;42.622;25.386;2023-03-05T06:23:52;96757.72;;;4.33;100.00
9439;BME280;5176;42.622;25.386;2023-03-05T06:26:21;96764.00;;;4.47;100.00
9439;BME280;5176;42.622;25.386;2023-03-05T06:28:51;96772.44;;;4.52;100.00
9439;BME280;5176;42.622;25.386;2023-03-05T06:31:21;96762.75;;;4.55;100.00
9439;BME280;5176;42.622;25.386;2023-03-05T06:33:52;96757.03;;;4.66;100.00
9439;BME280;5176;42.622;25.386;2023-03-05T06:36:23;96764.31;;;4.77;100.00
9439;BME280;5176;42.622;25.386;2023-03-05T06:38:52;96766.53;;;4.84;100.00
9439;BME280;5176;42.622;25.386;2023-03-05T06:41:23;96776.34;;;4.97;100.00
9439;BME280;5176;42.622;25.386;2023-03-05T06:43:52;96781.31;;;5.18;100.00
9439;BME280;5176;42.622;25.386;2023-03-05T06:46:25;96774.38;;;5.36;100.00
9439;BME280;5176;42.622;25.386;2023-03-05T06:48:56;96769.31;;;5.51;100.00
9439;BME280;5176;42.622;25.386;2023-03-05T06:51:29;96765.91;;;5.66;100.00
9439;BME280;5176;42.622;25.386;2023-03-05T06:53:59;96766.94;;;5.79;100.00
9439;BME280;5176;42.622;25.386;2023-03-05T06:56:29;96768.72;;;5.96;100.00
9439;BME280;5176;42.622;25.386;2023-03-05T06:58:58;96768.91;;;6.09;100.00
9439;BME280;5176;42.622;25.386;2023-03-05T07:01:27;96772.91;;;6.14;100.00
9439;BME280;5176;42.622;25.386;2023-03-05T07:03:55;96767.91;;;6.27;100.00
9439;BME280;5176;42.622;25.386;2023-03-05T07:06:28;96761.50;;;6.48;99.55
9439;BME280;5176;42.622;25.386;2023-03-05T07:08:59;96758.84;;;6.66;99.88
9439;BME280;5176;42.622;25.386;2023-03-05T07:11:28;96758.97;;;6.78;98.22
9439;BME280;5176;42.622;25.386;2023-03-05T07:13:57;96758.28;;;6.91;98.03
9439;BME280;5176;42.622;25.386;2023-03-05T07:16:28;96757.59;;;7.03;97.40
9439;BME280;5176;42.622;25.386;2023-03-05T07:19:00;96757.25;;;7.09;97.23
9439;BME280;5176;42.622;25.386;2023-03-05T07:21:32;96749.00;;;7.01;96.12
9439;BME280;5176;42.622;25.386;2023-03-05T07:24:02;96752.38;;;7.03;96.44
9439;BME280;5176;42.622;25.386;2023-03-05T07:26:31;96745.47;;;7.02;97.15
9439;BME280;5176;42.622;25.386;2023-03-05T07:29:00;96745.41;;;7.03;97.52
9439;BME280;5176;42.622;25.386;2023-03-05T07:31:29;96749.84;;;7.01;98.51
9439;BME280;5176;42.622;25.386;2023-03-05T07:33:58;96744.22;;;7.09;99.94
9439;BME280;5176;42.622;25.386;2023-03-05T07:36:30;96742.84;;;7.18;99.69
9439;BME280;5176;42.622;25.386;2023-03-05T07:39:01;96725.88;;;7.10;97.06
9439;BME280;5176;42.622;25.386;2023-03-05T07:41:31;96731.84;;;7.13;97.49
9439;BME280;5176;42.622;25.386;2023-03-05T07:43:59;96735.13;;;7.16;96.58
9439;BME280;5176;42.622;25.386;2023-03-05T07:46:31;96729.13;;;7.14;96.26
9439;BME280;5176;42.622;25.386;2023-03-05T07:49:00;96735.59;;;7.23;97.71
9439;BME280;5176;42.622;25.386;2023-03-05T07:51:30;96730.88;;;7.29;97.06
9439;BME280;5176;42.622;25.386;2023-03-05T07:54:00;96728.16;;;7.31;95.84
9439;BME280;5176;42.622;25.386;2023-03-05T07:56:31;96726.28;;;7.33;96.08
9439;BME280;5176;42.622;25.386;2023-03-05T07:59:03;96729.38;;;7.40;96.00
9439;BME280;5176;42.622;25.386;2023-03-05T08:01:32;96724.09;;;7.55;98.47
9439;BME280;5176;42.622;25.386;2023-03-05T08:04:02;96717.66;;;7.61;97.58
9439;BME280;5176;42.622;25.386;2023-03-05T08:06:32;96717.03;;;7.72;95.03
9439;BME280;5176;42.622;25.386;2023-03-05T08:09:01;96719.72;;;7.84;95.14
9439;BME280;5176;42.622;25.386;2023-03-05T08:11:30;96720.38;;;7.88;93.73
9439;BME280;5176;42.622;25.386;2023-03-05T08:13:59;96721.13;;;7.90;92.41
9439;BME280;5176;42.622;25.386;2023-03-05T08:16:28;96713.84;;;7.95;92.80
9439;BME280;5176;42.622;25.386;2023-03-05T08:18:57;96712.53;;;8.02;92.66
9439;BME280;5176;42.622;25.386;2023-03-05T08:21:27;96711.31;;;8.08;91.58
9439;BME280;5176;42.622;25.386;2023-03-05T08:23:59;96705.34;;;8.20;93.51
9439;BME280;5176;42.622;25.386;2023-03-05T08:26:29;96701.72;;;8.23;93.50
9439;BME280;5176;42.622;25.386;2023-03-05T08:28:58;96694.13;;;8.32;92.90
9439;BME280;5176;42.622;25.386;2023-03-05T08:31:28;96698.16;;;8.38;92.36
9439;BME280;5176;42.622;25.386;2023-03-05T08:33:59;96691.34;;;8.35;92.48
9439;BME280;5176;42.622;25.386;2023-03-05T08:36:29;96692.94;;;8.38;92.38
9439;BME280;5176;42.622;25.386;2023-03-05T08:38:59;96689.78;;;8.60;91.99
9439;BME280;5176;42.622;25.386;2023-03-05T08:41:29;96684.59;;;8.72;90.85
9439;BME280;5176;42.622;25.386;2023-03-05T08:43:57;96692.38;;;8.87;89.77
9439;BME280;5176;42.622;25.386;2023-03-05T08:46:26;96681.50;;;8.93;88.87
9439;BME280;5176;42.622;25.386;2023-03-05T08:48:56;96689.66;;;9.01;86.68
9439;BME280;5176;42.622;25.386;2023-03-05T08:51:25;96679.63;;;8.95;85.95
9439;BME280;5176;42.622;25.386;2023-03-05T08:53:54;96673.78;;;8.91;86.25
9439;BME280;5176;42.622;25.386;2023-03-05T08:56:25;96676.28;;;8.93;86.60
9439;BME280;5176;42.622;25.386;2023-03-05T08:58:56;96672.63;;;9.08;89.03
9439;BME280;5176;42.622;25.386;2023-03-05T09:01:25;96671.91;;;9.06;84.89
9439;BME280;5176;42.622;25.386;2023-03-05T09:03:53;96672.34;;;9.13;85.82
9439;BME280;5176;42.622;25.386;2023-03-05T09:06:22;96671.22;;;9.17;83.32
9439;BME280;5176;42.622;25.386;2023-03-05T09:08:51;96671.31;;;9.28;83.72
9439;BME280;5176;42.622;25.386;2023-03-05T09:11:20;96672.97;;;9.42;79.81
9439;BME280;5176;42.622;25.386;2023-03-05T09:13:50;96666.78;;;9.68;79.68
9439;BME280;5176;42.622;25.386;2023-03-05T09:16:19;96655.56;;;9.92;80.43
9439;BME280;5176;42.622;25.386;2023-03-05T09:18:48;96661.94;;;10.00;76.34
9439;BME280;5176;42.622;25.386;2023-03-05T09:21:16;96664.84;;;10.08;75.94
9439;BME280;5176;42.622;25.386;2023-03-05T09:23:45;96672.50;;;10.12;74.27
9439;BME280;5176;42.622;25.386;2023-03-05T09:26:15;96662.63;;;10.28;75.38
9439;BME280;5176;42.622;25.386;2023-03-05T09:28:46;96656.91;;;10.47;73.00
9439;BME280;5176;42.622;25.386;2023-03-05T09:31:17;96650.91;;;10.69;72.19
9439;BME280;5176;42.622;25.386;2023-03-05T09:33:46;96649.69;;;10.97;70.75
9439;BME280;5176;42.622;25.386;2023-03-05T09:36:19;96659.66;;;11.15;66.32
9439;BME280;5176;42.622;25.386;2023-03-05T09:38:49;96657.78;;;11.29;65.13
9439;BME280;5176;42.622;25.386;2023-03-05T09:41:26;96665.09;;;11.48;67.29
9439;BME280;5176;42.622;25.386;2023-03-05T09:44:03;96657.72;;;11.64;63.66
9439;BME280;5176;42.622;25.386;2023-03-05T09:46:45;96658.78;;;11.61;58.76
9439;BME280;5176;42.622;25.386;2023-03-05T09:49:21;96652.00;;;11.59;56.91
9439;BME280;5176;42.622;25.386;2023-03-05T09:51:58;96651.41;;;11.66;60.30
9439;BME280;5176;42.622;25.386;2023-03-05T09:54:32;96645.53;;;11.52;55.20
9439;BME280;5176;42.622;25.386;2023-03-05T09:57:04;96639.44;;;11.40;57.32
9439;BME280;5176;42.622;25.386;2023-03-05T09:59:46;96644.34;;;11.44;58.72
9439;BME280;5176;42.622;25.386;2023-03-05T10:02:22;96641.09;;;11.41;57.53
9439;BME280;5176;42.622;25.386;2023-03-05T10:04:55;96640.28;;;11.40;56.42
9439;BME280;5176;42.622;25.386;2023-03-05T10:07:27;96640.41;;;11.39;54.88
9439;BME280;5176;42.622;25.386;2023-03-05T10:10:00;96633.09;;;11.42;54.91
9439;BME280;5176;42.622;25.386;2023-03-05T10:12:37;96629.78;;;11.40;52.55
9439;BME280;5176;42.622;25.386;2023-03-05T10:15:12;96604.84;;;11.24;51.96
9439;BME280;5176;42.622;25.386;2023-03-05T10:18:08;96626.56;;;11.37;52.18
9439;BME280;5176;42.622;25.386;2023-03-05T10:20:57;96625.63;;;11.38;52.43
9439;BME280;5176;42.622;25.386;2023-03-05T10:23:34;96620.81;;;11.32;50.28
9439;BME280;5176;42.622;25.386;2023-03-05T10:26:24;96615.59;;;11.32;51.24
9439;BME280;5176;42.622;25.386;2023-03-05T10:29:03;96612.97;;;11.32;52.46
9439;BME280;5176;42.622;25.386;2023-03-05T10:31:40;96604.25;;;11.31;52.33
9439;BME280;5176;42.622;25.386;2023-03-05T10:34:39;96592.19;;;11.29;52.52
9439;BME280;5176;42.622;25.386;2023-03-05T10:37:44;96595.66;;;11.29;52.87
9439;BME280;5176;42.622;25.386;2023-03-05T10:40:21;96596.75;;;11.38;52.25
9439;BME280;5176;42.622;25.386;2023-03-05T10:42:59;96590.28;;;11.42;51.80
9439;BME280;5176;42.622;25.386;2023-03-05T10:45:35;96578.84;;;11.43;50.96
9439;BME280;5176;42.622;25.386;2023-03-05T10:48:10;96573.59;;;11.54;50.89
9439;BME280;5176;42.622;25.386;2023-03-05T10:50:46;96554.13;;;11.79;51.85
9439;BME280;5176;42.622;25.386;2023-03-05T10:53:21;96560.34;;;11.89;48.28
9439;BME280;5176;42.622;25.386;2023-03-05T10:55:51;96557.97;;;11.86;49.23
9439;BME280;5176;42.622;25.386;2023-03-05T10:58:23;96552.44;;;11.89;50.49
9439;BME280;5176;42.622;25.386;2023-03-05T11:01:03;96549.72;;;11.91;50.78
9439;BME280;5176;42.622;25.386;2023-03-05T11:03:49;96545.78;;;11.85;50.13
9439;BME280;5176;42.622;25.386;2023-03-05T11:06:31;96537.19;;;11.83;49.49
9439;BME280;5176;42.622;25.386;2023-03-05T11:09:15;96538.38;;;11.90;50.09
9439;BME280;5176;42.622;25.386;2023-03-05T11:12:03;96539.72;;;11.85;48.97
9439;BME280;5176;42.622;25.386;2023-03-05T11:14:37;96528.13;;;11.87;50.01
9439;BME280;5176;42.622;25.386;2023-03-05T11:17:23;96527.66;;;11.82;49.85
9439;BME280;5176;42.622;25.386;2023-03-05T11:19:54;96517.84;;;11.73;49.13
9439;BME280;5176;42.622;25.386;2023-03-05T11:22:24;96514.63;;;11.69;49.76
9439;BME280;5176;42.622;25.386;2023-03-05T11:25:13;96506.19;;;11.66;48.57
9439;BME280;5176;42.622;25.386;2023-03-05T11:27:49;96499.75;;;11.59;49.50
9439;BME280;5176;42.622;25.386;2023-03-05T11:30:19;96500.72;;;11.58;50.41
9439;BME280;5176;42.622;25.386;2023-03-05T11:32:49;96502.50;;;11.57;50.32
9439;BME280;5176;42.622;25.386;2023-03-05T11:35:30;96498.31;;;11.55;48.94
9439;BME280;5176;42.622;25.386;2023-03-05T11:38:02;96493.88;;;11.55;49.22
9439;BME280;5176;42.622;25.386;2023-03-05T11:40:32;96492.09;;;11.56;49.21
9439;BME280;5176;42.622;25.386;2023-03-05T11:43:03;96490.91;;;11.49;49.94
9439;BME280;5176;42.622;25.386;2023-03-05T11:45:32;96487.94;;;11.42;48.67
9439;BME280;5176;42.622;25.386;2023-03-05T11:48:05;96482.13;;;11.38;48.98
9439;BME280;5176;42.622;25.386;2023-03-05T11:50:37;96477.56;;;11.40;49.55
9439;BME280;5176;42.622;25.386;2023-03-05T11:53:16;96475.66;;;11.42;50.44
9439;BME280;5176;42.622;25.386;2023-03-05T11:55:48;96477.94;;;11.47;49.46
9439;BME280;5176;42.622;25.386;2023-03-05T11:58:38;96482.00;;;11.51;50.64
9439;BME280;5176;42.622;25.386;2023-03-05T12:01:13;96489.72;;;11.53;52.88
9439;BME280;5176;42.622;25.386;2023-03-05T12:03:44;96495.22;;;11.50;50.97
9439;BME280;5176;42.622;25.386;2023-03-05T12:06:17;96490.22;;;11.46;49.77
9439;BME280;5176;42.622;25.386;2023-03-05T12:08:51;96489.03;;;11.51;51.06
9439;BME280;5176;42.622;25.386;2023-03-05T12:11:24;96485.31;;;11.53;50.02
9439;BME280;5176;42.622;25.386;2023-03-05T12:13:56;96489.03;;;11.51;49.54
9439;BME280;5176;42.622;25.386;2023-03-05T12:16:33;96482.81;;;11.52;50.27
9439;BME280;5176;42.622;25.386;2023-03-05T12:19:24;96480.19;;;11.52;50.63
9439;BME280;5176;42.622;25.386;2023-03-05T12:21:56;96490.44;;;11.55;50.50
9439;BME280;5176;42.622;25.386;2023-03-05T12:24:38;96485.06;;;11.56;51.78
9439;BME280;5176;42.622;25.386;2023-03-05T12:27:31;96483.53;;;11.54;49.32
9439;BME280;5176;42.622;25.386;2023-03-05T12:30:02;96488.06;;;11.40;50.89
9439;BME280;5176;42.622;25.386;2023-03-05T12:32:57;96488.69;;;11.44;50.30
9439;BME280;5176;42.622;25.386;2023-03-05T12:35:34;96484.97;;;11.46;51.02
9439;BME280;5176;42.622;25.386;2023-03-05T12:38:27;96489.03;;;11.51;50.63
9439;BME280;5176;42.622;25.386;2023-03-05T12:44:20;96486.50;;;11.49;55.27
9439;BME280;5176;42.622;25.386;2023-03-05T12:47:17;96476.84;;;11.50;56.37
9439;BME280;5176;42.622;25.386;2023-03-05T12:49:49;96472.81;;;11.45;56.45
9439;BME280;5176;42.622;25.386;2023-03-05T12:52:23;96469.00;;;11.38;56.98
9439;BME280;5176;42.622;25.386;2023-03-05T12:57:45;96470.44;;;11.31;58.46
9439;BME280;5176;42.622;25.386;2023-03-05T13:00:17;96475.91;;;11.28;56.97
9439;BME280;5176;42.622;25.386;2023-03-05T13:02:53;96478.88;;;11.35;57.15
9439;BME280;5176;42.622;25.386;2023-03-05T13:05:26;96479.13;;;11.43;56.26
9439;BME280;5176;42.622;25.386;2023-03-05T13:08:10;96479.84;;;11.45;57.71
9439;BME280;5176;42.622;25.386;2023-03-05T13:10:40;96482.91;;;11.50;58.26
9439;BME280;5176;42.622;25.386;2023-03-05T13:13:13;96484.63;;;11.51;57.00
9439;BME280;5176;42.622;25.386;2023-03-05T13:15:46;96475.78;;;11.52;57.39
9439;BME280;5176;42.622;25.386;2023-03-05T13:18:18;96470.53;;;11.52;55.16
9439;BME280;5176;42.622;25.386;2023-03-05T13:20:47;96468.97;;;11.50;55.35
9439;BME280;5176;42.622;25.386;2023-03-05T13:23:22;96457.19;;;11.44;55.76
9439;BME280;5176;42.622;25.386;2023-03-05T13:25:59;96462.78;;;11.51;56.70
9439;BME280;5176;42.622;25.386;2023-03-05T13:28:29;96460.03;;;11.52;56.52
9439;BME280;5176;42.622;25.386;2023-03-05T13:31:01;96461.09;;;11.50;55.20
9439;BME280;5176;42.622;25.386;2023-03-05T13:33:34;96466.81;;;11.55;55.13
9439;BME280;5176;42.622;25.386;2023-03-05T13:36:04;96456.91;;;11.58;54.80
9439;BME280;5176;42.622;25.386;2023-03-05T13:38:35;96443.19;;;11.55;55.55
9439;BME280;5176;42.622;25.386;2023-03-05T13:41:17;96446.28;;;11.60;57.21
9439;BME280;5176;42.622;25.386;2023-03-05T13:43:48;96440.69;;;11.53;53.43